• Join FlightAware (Why Join?)
  • Login
  • US Flag 
12:34PM EST


 

Airport Tracker/Info


-or-


 

Live Flight TrackerFlight Track Log ✈ ERR12K ✈ 06-Oct-2013 ✈ PAGA / GAL - PAFA / FAI

Flight Track Log - Related Links

Times and Time Zones

All times are in EDT time to prevent confusion due to time zone crossing. See the ERR12K flight status page for this flight to view local times or setup timezone preferences in your user account.

Time Position Orientation Groundspeed Altitude Reporting Facility
EDT Latitude Longitude Course Direction KTS MPH feet Rate Location/Type
03:55PM 64.7500 -156.3000 87° East 180 207 6,600  Level Anchorage Center
03:56PM 64.7598 -156.1640 86° East  Level FlightAware Approximate
03:56PM 64.7500 -156.2000 90° East 150 173 7,000  Level Anchorage Center
03:57PM 64.7628 -156.0534 86° East  Level FlightAware Approximate
03:57PM 64.7667 -156.0667 74° East 180 207 7,000  Level Anchorage Center
03:58PM 64.7658 -155.9428 86° East  Level FlightAware Approximate
03:58PM 64.7667 -155.9667 90° East 170 196 7,000  Level Anchorage Center
03:59PM 64.7686 -155.8322 86° East  Level FlightAware Approximate
03:59PM 64.7667 -155.8500 90° East 180 207 7,000  Level Anchorage Center
04:00PM 64.7714 -155.7215 87° East  Level FlightAware Approximate
04:00PM 64.7667 -155.7167 90° East 190 219 7,000  Level Anchorage Center
04:01PM 64.7742 -155.6108 87° East  Level FlightAware Approximate
04:01PM 64.7667 -155.5833 90° East 190 219 7,000  Level Anchorage Center
04:02PM 64.7833 -155.4667 71° East 190 219 7,000  Level Anchorage Center
04:03PM 64.7833 -155.3500 90° East 180 207 7,000  Level Anchorage Center
04:04PM 64.7833 -155.2167 90° East 190 219 7,000  Level Anchorage Center
04:05PM 64.7833 -155.1167 90° East 160 184 7,000  Level Anchorage Center
04:06PM 64.8000 -155.0000 71° East 170 196 7,000  Level Anchorage Center
04:07PM 64.8000 -154.8833 90° East 190 219 7,000  Level Anchorage Center
04:08PM 64.8000 -154.7333 90° East 190 219 7,000  Level Anchorage Center
04:09PM 64.8000 -154.6000 90° East 220 253 7,000  Level Anchorage Center
04:10PM 64.8000 -154.5000 90° East 180 207 7,000  Level Anchorage Center
04:11PM 64.8000 -154.3667 90° East 190 219 7,000  Level Anchorage Center
04:12PM 64.8167 -154.2500 71° East 190 219 7,000  Level Anchorage Center
04:13PM 64.8167 -154.1500 90° East 170 196 7,000  Level Anchorage Center
04:14PM 64.8167 -154.0333 90° East 180 207 7,000  Level Anchorage Center
04:15PM 64.8167 -153.9000 90° East 190 219 7,000  Level Anchorage Center
04:16PM 64.8167 -153.7833 90° East 190 219 7,000  Level Anchorage Center
04:17PM 64.8167 -153.6667 90° East 180 207 7,000  Level Anchorage Center
04:18PM 64.8167 -153.5500 90° East 170 196 7,000  Level Anchorage Center
04:19PM 64.8167 -153.4333 90° East 170 196 7,000  Level Anchorage Center
04:20PM 64.8167 -153.3167 90° East 170 196 7,000  Level Anchorage Center
04:21PM 64.8333 -153.2000 71° East 190 219 7,000  Level Anchorage Center
04:22PM 64.8333 -153.0833 90° East 180 207 7,000  Level Anchorage Center
04:23PM 64.8333 -152.9667 90° East 190 219 7,000  Level Anchorage Center
04:24PM 64.8333 -152.8500 90° East 180 207 7,000  Level Anchorage Center
04:25PM 64.8333 -152.7333 90° East 170 196 7,000  Level Anchorage Center
04:26PM 64.8333 -152.6167 90° East 170 196 7,000  Level Anchorage Center
04:27PM 64.8333 -152.4833 90° East 170 196 7,000  Level Anchorage Center
04:28PM 64.8333 -152.3667 90° East 190 219 7,000  Level Anchorage Center
04:29PM 64.8333 -152.2500 90° East 170 196 7,000  Level Anchorage Center
04:30PM 64.8333 -152.1333 90° East 190 219 7,000  Level Anchorage Center
04:31PM 64.8333 -152.0167 90° East 170 196 7,000  Level Anchorage Center
04:32PM 64.8333 -151.9333 90° East 160 184 7,000  Level Anchorage Center
04:34PM 64.8500 -151.6833 81° East 170 196 7,000  Level Anchorage Center
04:35PM 64.8333 -151.5667 109° East 180 207 7,000  Level Anchorage Center
04:36PM 64.8500 -151.4500 71° East 180 207 7,000  Level Anchorage Center
04:37PM 64.8500 -151.3333 90° East 180 207 7,000  Level Anchorage Center
04:38PM 64.8500 -151.2167 90° East 160 184 7,000  Level Anchorage Center
04:39PM 64.8500 -151.1000 90° East 180 207 7,000  Level Anchorage Center
04:42PM 64.8500 -150.8667 90° East 170 196 7,000  Level Anchorage Center
04:43PM 64.8500 -150.7500 90° East 180 207 7,000  Level Anchorage Center
04:44PM 64.8500 -150.6333 90° East 180 207 7,000  Level Anchorage Center
04:45PM 64.8333 -150.5167 109° East 180 207 7,000  Level Anchorage Center
04:46PM 64.8500 -150.4000 71° East 190 219 7,000  Level Anchorage Center
04:47PM 64.8333 -150.3000 111° Southeast 170 196 7,000  Level Anchorage Center
04:48PM 64.8333 -150.1667 90° East 180 207 7,000  Level Anchorage Center
04:50PM 64.8333 -149.9333 90° East 170 196 7,000  Level Anchorage Center
04:51PM 64.8333 -149.8167 90° East 170 196 7,000  Level Anchorage Center
04:52PM 64.8333 -149.7167 90° East 170 196 7,000  Level Anchorage Center
04:53PM 64.8333 -149.6000 90° East 170 196 7,000  Level Anchorage Center
04:55PM 64.8337 -149.3852 90° East  Level FlightAware Approximate
05:02PM 64.8167 -148.6129 90° East  Level FlightAware Approximate
05:03PM 64.8167 -148.5018 90° East  Level FlightAware Approximate
05:04PM 64.8169 -148.3908 90° East  Level FlightAware Approximate
05:05PM 64.8169 -148.2797 90° East  Level FlightAware Approximate
05:06PM 64.8169 -148.1687 90° East  Level FlightAware Approximate
05:07PM 64.8168 -148.0576 90° East  Level FlightAware Approximate
05:08PM 64.8123 -147.9481 106° East  Level FlightAware Approximate
05:09PM 64.8000 -147.8500 106° East  Level FlightAware Approximate
05:10PM 64.8151 -147.8564 106° East  Level Estimated
05:11PM 64.8151 -147.8564 106° East  Level Estimated
05:12PM 64.8151 -147.8564 106° East  Level Estimated
05:13PM 64.8151 -147.8564 106° East  Level Estimated
05:14PM 64.8151 -147.8564 106° East  Level Estimated
05:15PM 64.8151 -147.8564 106° East  Level Estimated
05:16PM 64.8151 -147.8564 106° East  Level Estimated
05:17PM 64.8151 -147.8564 106° East  Level Estimated
05:18PM 64.8151 -147.8564 106° East  Level Estimated
05:19PM 64.8151 -147.8564 106° East  Level Estimated
05:20PM 64.8151 -147.8564 106° East  Level Estimated
05:21PM 64.8151 -147.8564 106° East  Level Estimated
05:22PM 64.8151 -147.8564 106° East  Level Estimated
05:23PM 64.8151 -147.8564 106° East  Level Estimated
05:24PM 64.8151 -147.8564 106° East  Level Estimated
05:25PM 64.8151 -147.8564 106° East  Level Estimated
05:26PM 64.8151 -147.8564 106° East  Level Estimated